sensor_id;sensor_type;location;lat;lon;timestamp;pressure;altitude;pressure_sealevel;temperature;humidity
41513;BME280;27244;59.940;30.280;2022-09-03T00:00:08;101854.22;;;23.42;42.07
41513;BME280;27244;59.940;30.280;2022-09-03T00:02:39;101847.78;;;23.38;42.53
41513;BME280;27244;59.940;30.280;2022-09-03T00:05:13;101850.59;;;23.38;42.28
41513;BME280;27244;59.940;30.280;2022-09-03T00:07:46;101853.41;;;23.41;42.17
41513;BME280;27244;59.940;30.280;2022-09-03T00:10:21;101860.25;;;23.44;42.49
41513;BME280;27244;59.940;30.280;2022-09-03T00:12:53;101861.03;;;23.41;42.38
41513;BME280;27244;59.940;30.280;2022-09-03T00:15:23;101863.88;;;23.37;42.29
41513;BME280;27244;59.940;30.280;2022-09-03T00:17:53;101863.47;;;23.42;42.23
41513;BME280;27244;59.940;30.280;2022-09-03T00:20:26;101866.66;;;23.44;42.18
41513;BME280;27244;59.940;30.280;2022-09-03T00:22:59;101869.91;;;23.43;42.13
41513;BME280;27244;59.940;30.280;2022-09-03T00:25:38;101857.03;;;23.38;42.13
41513;BME280;27244;59.940;30.280;2022-09-03T00:28:12;101864.66;;;23.45;41.98
41513;BME280;27244;59.940;30.280;2022-09-03T00:30:41;101871.13;;;23.38;42.05
41513;BME280;27244;59.940;30.280;2022-09-03T00:33:19;101867.06;;;23.46;42.04
41513;BME280;27244;59.940;30.280;2022-09-03T00:35:50;101866.66;;;23.41;41.96
41513;BME280;27244;59.940;30.280;2022-09-03T00:38:24;101868.31;;;23.42;42.24
41513;BME280;27244;59.940;30.280;2022-09-03T00:41:03;101870.28;;;23.45;41.32
41513;BME280;27244;59.940;30.280;2022-09-03T00:43:44;101864.66;;;23.45;41.48
41513;BME280;27244;59.940;30.280;2022-09-03T00:46:20;101855.09;;;23.32;41.16
41513;BME280;27244;59.940;30.280;2022-09-03T00:49:10;101865.84;;;23.47;41.27
41513;BME280;27244;59.940;30.280;2022-09-03T00:51:46;101869.09;;;23.39;41.55
41513;BME280;27244;59.940;30.280;2022-09-03T00:54:21;101871.53;;;23.40;41.51
41513;BME280;27244;59.940;30.280;2022-09-03T00:57:14;101863.84;;;23.41;41.50
41513;BME280;27244;59.940;30.280;2022-09-03T00:59:49;101873.94;;;23.42;41.65
41513;BME280;27244;59.940;30.280;2022-09-03T01:02:28;101870.72;;;23.40;41.56
41513;BME280;27244;59.940;30.280;2022-09-03T01:05:09;101883.56;;;23.41;41.55
41513;BME280;27244;59.940;30.280;2022-09-03T01:07:40;101875.56;;;23.36;41.71
41513;BME280;27244;59.940;30.280;2022-09-03T01:10:21;101875.13;;;23.41;41.60
41513;BME280;27244;59.940;30.280;2022-09-03T01:13:00;101871.53;;;23.37;41.63
41513;BME280;27244;59.940;30.280;2022-09-03T01:15:34;101871.97;;;23.35;41.50
41513;BME280;27244;59.940;30.280;2022-09-03T01:18:14;101876.38;;;23.36;41.62
41513;BME280;27244;59.940;30.280;2022-09-03T01:20:51;101867.50;;;23.38;41.45
41513;BME280;27244;59.940;30.280;2022-09-03T01:23:54;101868.72;;;23.44;41.45
41513;BME280;27244;59.940;30.280;2022-09-03T01:26:59;101872.22;;;23.51;41.46
41513;BME280;27244;59.940;30.280;2022-09-03T01:29:36;101871.94;;;23.39;41.32
41513;BME280;27244;59.940;30.280;2022-09-03T01:32:10;101870.75;;;23.36;41.41
41513;BME280;27244;59.940;30.280;2022-09-03T01:34:49;101873.94;;;23.38;41.54
41513;BME280;27244;59.940;30.280;2022-09-03T01:37:25;101873.97;;;23.35;40.71
41513;BME280;27244;59.940;30.280;2022-09-03T01:40:03;101873.97;;;23.35;40.76
41513;BME280;27244;59.940;30.280;2022-09-03T01:42:41;101867.13;;;23.36;41.40
41513;BME280;27244;59.940;30.280;2022-09-03T01:45:28;101879.97;;;23.40;40.15
41513;BME280;27244;59.940;30.280;2022-09-03T01:48:19;101866.69;;;23.37;40.68
41513;BME280;27244;59.940;30.280;2022-09-03T01:50:52;101871.59;;;23.30;41.08
41513;BME280;27244;59.940;30.280;2022-09-03T01:53:38;101881.19;;;23.39;40.81
41513;BME280;27244;59.940;30.280;2022-09-03T01:56:18;101877.59;;;23.35;41.15
41513;BME280;27244;59.940;30.280;2022-09-03T01:58:55;101878.81;;;23.31;41.33
41513;BME280;27244;59.940;30.280;2022-09-03T02:01:32;101881.63;;;23.31;41.27
41513;BME280;27244;59.940;30.280;2022-09-03T02:04:00;101873.66;;;23.26;41.42
41513;BME280;27244;59.940;30.280;2022-09-03T02:06:29;101884.13;;;23.25;41.07
41513;BME280;27244;59.940;30.280;2022-09-03T02:08:57;101882.91;;;23.23;40.85
41513;BME280;27244;59.940;30.280;2022-09-03T02:11:24;101882.09;;;23.26;41.06
41513;BME280;27244;59.940;30.280;2022-09-03T02:13:53;101886.91;;;23.29;41.14
41513;BME280;27244;59.940;30.280;2022-09-03T02:16:27;101880.88;;;23.27;40.99
41513;BME280;27244;59.940;30.280;2022-09-03T02:18:58;101883.28;;;23.28;41.17
41513;BME280;27244;59.940;30.280;2022-09-03T02:21:30;101878.03;;;23.27;40.76
41513;BME280;27244;59.940;30.280;2022-09-03T02:23:59;101878.06;;;23.23;40.65
41513;BME280;27244;59.940;30.280;2022-09-03T02:26:26;101875.25;;;23.23;41.05
41513;BME280;27244;59.940;30.280;2022-09-03T02:28:54;101876.50;;;23.22;41.14
41513;BME280;27244;59.940;30.280;2022-09-03T02:31:23;101878.88;;;23.24;41.35
41513;BME280;27244;59.940;30.280;2022-09-03T02:33:51;101879.31;;;23.22;41.10
41513;BME280;27244;59.940;30.280;2022-09-03T02:36:24;101875.63;;;23.29;41.22
41513;BME280;27244;59.940;30.280;2022-09-03T02:38:51;101876.50;;;23.22;41.36
41513;BME280;27244;59.940;30.280;2022-09-03T02:41:18;101881.31;;;23.22;41.26
41513;BME280;27244;59.940;30.280;2022-09-03T02:43:49;101864.44;;;23.22;41.22
41513;BME280;27244;59.940;30.280;2022-09-03T02:46:20;101876.47;;;23.26;41.22
41513;BME280;27244;59.940;30.280;2022-09-03T02:48:48;101871.63;;;23.23;41.09
41513;BME280;27244;59.940;30.280;2022-09-03T02:51:15;101869.25;;;23.21;41.10
41513;BME280;27244;59.940;30.280;2022-09-03T02:53:44;101874.88;;;23.21;41.17
41513;BME280;27244;59.940;30.280;2022-09-03T02:56:12;101869.66;;;23.20;41.03
41513;BME280;27244;59.940;30.280;2022-09-03T02:58:39;101868.84;;;23.19;41.19
41513;BME280;27244;59.940;30.280;2022-09-03T03:01:06;101871.66;;;23.19;41.12
41513;BME280;27244;59.940;30.280;2022-09-03T03:03:33;101868.09;;;23.19;41.10
41513;BME280;27244;59.940;30.280;2022-09-03T03:06:03;101868.44;;;23.21;40.93
41513;BME280;27244;59.940;30.280;2022-09-03T03:08:31;101870.69;;;23.47;40.73
41513;BME280;27244;59.940;30.280;2022-09-03T03:11:01;101874.84;;;23.25;40.90
41513;BME280;27244;59.940;30.280;2022-09-03T03:13:29;101873.28;;;23.20;40.90
41513;BME280;27244;59.940;30.280;2022-09-03T03:15:57;101870.09;;;23.18;41.06
41513;BME280;27244;59.940;30.280;2022-09-03T03:18:24;101872.50;;;23.16;40.12
41513;BME280;27244;59.940;30.280;2022-09-03T03:20:52;101872.50;;;23.16;40.93
41513;BME280;27244;59.940;30.280;2022-09-03T03:23:19;101874.13;;;23.14;40.87
41513;BME280;27244;59.940;30.280;2022-09-03T03:25:46;101871.69;;;23.16;40.78
41513;BME280;27244;59.940;30.280;2022-09-03T03:28:15;101878.53;;;23.18;40.19
41513;BME280;27244;59.940;30.280;2022-09-03T03:30:44;101873.31;;;23.17;40.59
41513;BME280;27244;59.940;30.280;2022-09-03T03:33:13;101871.69;;;23.16;40.58
41513;BME280;27244;59.940;30.280;2022-09-03T03:35:40;101878.94;;;23.17;40.61
41513;BME280;27244;59.940;30.280;2022-09-03T03:38:07;101874.50;;;23.16;40.88
41513;BME280;27244;59.940;30.280;2022-09-03T03:40:34;101866.88;;;23.16;40.99
41513;BME280;27244;59.940;30.280;2022-09-03T03:43:03;101868.88;;;23.16;40.69
41513;BME280;27244;59.940;30.280;2022-09-03T03:45:31;101874.50;;;23.16;40.45
41513;BME280;27244;59.940;30.280;2022-09-03T03:47:58;101874.50;;;23.16;40.40
41513;BME280;27244;59.940;30.280;2022-09-03T03:50:26;101876.53;;;23.15;40.63
41513;BME280;27244;59.940;30.280;2022-09-03T03:52:53;101871.69;;;23.16;41.06
41513;BME280;27244;59.940;30.280;2022-09-03T03:55:20;101872.50;;;23.16;40.94
41513;BME280;27244;59.940;30.280;2022-09-03T03:57:47;101879.75;;;23.17;41.10
41513;BME280;27244;59.940;30.280;2022-09-03T04:00:15;101876.94;;;23.17;41.12
41513;BME280;27244;59.940;30.280;2022-09-03T04:02:43;101885.38;;;23.17;41.50
41513;BME280;27244;59.940;30.280;2022-09-03T04:05:11;101878.56;;;23.15;41.15
41513;BME280;27244;59.940;30.280;2022-09-03T04:07:39;101889.41;;;23.16;41.25
41513;BME280;27244;59.940;30.280;2022-09-03T04:10:07;101882.97;;;23.16;41.28
41513;BME280;27244;59.940;30.280;2022-09-03T04:12:34;101870.91;;;23.12;41.11
41513;BME280;27244;59.940;30.280;2022-09-03T04:15:01;101883.78;;;23.13;40.81
41513;BME280;27244;59.940;30.280;2022-09-03T04:17:28;101882.19;;;23.12;41.17
41513;BME280;27244;59.940;30.280;2022-09-03T04:19:57;101886.59;;;23.13;41.36
41513;BME280;27244;59.940;30.280;2022-09-03T04:22:24;101879.00;;;23.10;41.11
41513;BME280;27244;59.940;30.280;2022-09-03T04:24:51;101901.47;;;23.13;41.36
41513;BME280;27244;59.940;30.280;2022-09-03T04:27:18;101885.81;;;23.12;41.12
41513;BME280;27244;59.940;30.280;2022-09-03T04:29:45;101893.44;;;23.12;41.52
41513;BME280;27244;59.940;30.280;2022-09-03T04:32:12;101895.06;;;23.13;41.59
41513;BME280;27244;59.940;30.280;2022-09-03T04:34:58;101894.66;;;23.14;40.94
41513;BME280;27244;59.940;30.280;2022-09-03T04:37:25;101886.63;;;23.09;40.90
41513;BME280;27244;59.940;30.280;2022-09-03T04:39:52;101891.84;;;23.11;41.05
41513;BME280;27244;59.940;30.280;2022-09-03T04:42:19;101892.25;;;23.09;40.99
41513;BME280;27244;59.940;30.280;2022-09-03T04:44:46;101887.06;;;23.08;41.16
41513;BME280;27244;59.940;30.280;2022-09-03T04:47:13;101895.88;;;23.10;41.03
41513;BME280;27244;59.940;30.280;2022-09-03T04:49:41;101892.69;;;23.08;41.02
41513;BME280;27244;59.940;30.280;2022-09-03T04:52:09;101913.13;;;23.12;41.17
41513;BME280;27244;59.940;30.280;2022-09-03T04:54:36;101912.75;;;23.10;41.16
41513;BME280;27244;59.940;30.280;2022-09-03T04:57:03;101911.16;;;23.09;41.06
41513;BME280;27244;59.940;30.280;2022-09-03T04:59:30;101913.56;;;23.10;41.09
41513;BME280;27244;59.940;30.280;2022-09-03T05:01:57;101905.16;;;23.07;41.09
41513;BME280;27244;59.940;30.280;2022-09-03T05:04:24;101909.94;;;23.10;40.85
41513;BME280;27244;59.940;30.280;2022-09-03T05:06:51;101916.78;;;23.09;40.99
41513;BME280;27244;59.940;30.280;2022-09-03T05:09:19;101908.75;;;23.11;40.87
41513;BME280;27244;59.940;30.280;2022-09-03T05:11:46;101906.75;;;23.08;40.95
41513;BME280;27244;59.940;30.280;2022-09-03T05:14:13;101901.13;;;23.08;40.96
41513;BME280;27244;59.940;30.280;2022-09-03T05:16:40;101892.69;;;23.08;40.96
41513;BME280;27244;59.940;30.280;2022-09-03T05:19:07;101900.72;;;23.05;40.93
41513;BME280;27244;59.940;30.280;2022-09-03T05:21:35;101898.72;;;23.06;40.91
41513;BME280;27244;59.940;30.280;2022-09-03T05:24:03;101899.53;;;23.03;40.86
41513;BME280;27244;59.940;30.280;2022-09-03T05:26:35;101911.56;;;23.11;40.88
41513;BME280;27244;59.940;30.280;2022-09-03T05:29:04;101904.72;;;23.08;40.84
41513;BME280;27244;59.940;30.280;2022-09-03T05:31:33;101896.72;;;23.07;40.84
41513;BME280;27244;59.940;30.280;2022-09-03T05:34:02;101902.38;;;23.03;40.85
41513;BME280;27244;59.940;30.280;2022-09-03T05:36:32;101897.91;;;23.05;40.75
41513;BME280;27244;59.940;30.280;2022-09-03T05:38:59;101902.34;;;23.07;40.79
41513;BME280;27244;59.940;30.280;2022-09-03T05:41:27;101895.09;;;23.05;40.74
41513;BME280;27244;59.940;30.280;2022-09-03T05:43:56;101887.06;;;23.08;40.76
41513;BME280;27244;59.940;30.280;2022-09-03T05:46:25;101884.66;;;23.06;40.92
41513;BME280;27244;59.940;30.280;2022-09-03T05:48:56;101888.66;;;23.05;40.46
41513;BME280;27244;59.940;30.280;2022-09-03T05:51:24;101891.47;;;23.05;39.85
41513;BME280;27244;59.940;30.280;2022-09-03T05:53:51;101892.72;;;23.04;40.64
41513;BME280;27244;59.940;30.280;2022-09-03T05:56:21;101891.09;;;23.03;40.73
41513;BME280;27244;59.940;30.280;2022-09-03T05:58:50;101900.72;;;23.05;40.91
41513;BME280;27244;59.940;30.280;2022-09-03T06:01:20;101888.25;;;23.07;40.87
41513;BME280;27244;59.940;30.280;2022-09-03T06:03:53;101889.03;;;23.11;41.05
41513;BME280;27244;59.940;30.280;2022-09-03T06:06:21;101885.47;;;23.03;41.18
41513;BME280;27244;59.940;30.280;2022-09-03T06:08:50;101888.66;;;23.05;41.20
41513;BME280;27244;59.940;30.280;2022-09-03T06:11:17;101882.66;;;23.03;41.06
41513;BME280;27244;59.940;30.280;2022-09-03T06:13:45;101889.91;;;23.04;40.85
41513;BME280;27244;59.940;30.280;2022-09-03T06:16:12;101885.47;;;23.03;40.48
41513;BME280;27244;59.940;30.280;2022-09-03T06:18:40;101884.66;;;23.06;41.07
41513;BME280;27244;59.940;30.280;2022-09-03T06:21:07;101875.84;;;23.04;40.78
41513;BME280;27244;59.940;30.280;2022-09-03T06:23:34;101885.03;;;23.04;41.05
41513;BME280;27244;59.940;30.280;2022-09-03T06:26:03;101877.06;;;22.99;40.14
41513;BME280;27244;59.940;30.280;2022-09-03T06:28:31;101885.88;;;23.01;40.71
41513;BME280;27244;59.940;30.280;2022-09-03T06:30:59;101881.84;;;23.02;41.02
41513;BME280;27244;59.940;30.280;2022-09-03T06:33:27;101875.84;;;23.00;41.17
41513;BME280;27244;59.940;30.280;2022-09-03T06:35:58;101888.66;;;23.05;41.06
41513;BME280;27244;59.940;30.280;2022-09-03T06:38:26;101889.47;;;23.05;41.24
41513;BME280;27244;59.940;30.280;2022-09-03T06:40:54;101883.03;;;23.05;41.39
41513;BME280;27244;59.940;30.280;2022-09-03T06:43:23;101885.44;;;23.07;41.53
41513;BME280;27244;59.940;30.280;2022-09-03T06:45:55;101897.06;;;23.12;41.49
41513;BME280;27244;59.940;30.280;2022-09-03T06:48:22;101894.28;;;23.09;41.54
41513;BME280;27244;59.940;30.280;2022-09-03T06:50:54;101886.25;;;23.07;40.83
41513;BME280;27244;59.940;30.280;2022-09-03T06:53:24;101895.06;;;23.09;41.47
41513;BME280;27244;59.940;30.280;2022-09-03T06:55:52;101891.88;;;23.07;41.81
41513;BME280;27244;59.940;30.280;2022-09-03T06:58:20;101891.88;;;23.07;41.94
41513;BME280;27244;59.940;30.280;2022-09-03T07:00:48;101902.72;;;23.09;41.96
41513;BME280;27244;59.940;30.280;2022-09-03T07:03:15;101900.69;;;23.09;41.96
41513;BME280;27244;59.940;30.280;2022-09-03T07:05:43;101899.91;;;23.09;42.00
41513;BME280;27244;59.940;30.280;2022-09-03T07:08:10;101897.09;;;23.09;42.14
41513;BME280;27244;59.940;30.280;2022-09-03T07:10:39;101903.91;;;23.11;41.96
41513;BME280;27244;59.940;30.280;2022-09-03T07:13:07;101896.28;;;23.08;42.10
41513;BME280;27244;59.940;30.280;2022-09-03T07:15:34;101901.09;;;23.11;42.16
41513;BME280;27244;59.940;30.280;2022-09-03T07:18:01;101891.84;;;23.11;42.13
41513;BME280;27244;59.940;30.280;2022-09-03T07:20:28;101892.25;;;23.09;42.13
41513;BME280;27244;59.940;30.280;2022-09-03T07:22:55;101883.00;;;23.09;42.21
41513;BME280;27244;59.940;30.280;2022-09-03T07:25:23;101891.44;;;23.09;42.18
41513;BME280;27244;59.940;30.280;2022-09-03T07:27:52;101892.22;;;23.13;42.19
41513;BME280;27244;59.940;30.280;2022-09-03T07:30:19;101895.88;;;23.10;42.22
41513;BME280;27244;59.940;30.280;2022-09-03T07:32:46;101901.13;;;23.08;42.27
41513;BME280;27244;59.940;30.280;2022-09-03T07:35:15;101906.31;;;23.13;42.33
41513;BME280;27244;59.940;30.280;2022-09-03T07:37:43;101905.13;;;23.10;42.27
41513;BME280;27244;59.940;30.280;2022-09-03T07:40:10;101904.69;;;23.12;42.48
41513;BME280;27244;59.940;30.280;2022-09-03T07:42:38;101897.88;;;23.13;42.32
41513;BME280;27244;59.940;30.280;2022-09-03T07:45:07;101899.47;;;23.14;42.28
41513;BME280;27244;59.940;30.280;2022-09-03T07:47:36;101898.28;;;23.11;42.38
41513;BME280;27244;59.940;30.280;2022-09-03T07:50:07;101908.31;;;23.12;42.33
41513;BME280;27244;59.940;30.280;2022-09-03T07:52:37;101903.91;;;23.15;42.37
41513;BME280;27244;59.940;30.280;2022-09-03T07:55:08;101903.50;;;23.13;42.39
41513;BME280;27244;59.940;30.280;2022-09-03T07:57:35;101897.88;;;23.13;42.38
41513;BME280;27244;59.940;30.280;2022-09-03T08:00:03;101899.91;;;23.09;42.37
41513;BME280;27244;59.940;30.280;2022-09-03T08:02:38;101902.28;;;23.14;42.40
41513;BME280;27244;59.940;30.280;2022-09-03T08:05:06;101901.47;;;23.13;42.39
41513;BME280;27244;59.940;30.280;2022-09-03T08:07:33;101887.06;;;23.08;42.35
41513;BME280;27244;59.940;30.280;2022-09-03T08:10:00;101913.53;;;23.14;42.38
41513;BME280;27244;59.940;30.280;2022-09-03T08:12:27;101910.72;;;23.14;42.33
41513;BME280;27244;59.940;30.280;2022-09-03T08:14:54;101909.94;;;23.13;42.41
41513;BME280;27244;59.940;30.280;2022-09-03T08:17:22;101919.56;;;23.12;42.05
41513;BME280;27244;59.940;30.280;2022-09-03T08:19:51;101914.34;;;23.14;42.32
41513;BME280;27244;59.940;30.280;2022-09-03T08:22:18;101919.19;;;23.14;42.32
41513;BME280;27244;59.940;30.280;2022-09-03T08:24:45;101919.19;;;23.14;42.33
41513;BME280;27244;59.940;30.280;2022-09-03T08:27:13;101916.34;;;23.14;42.13
41513;BME280;27244;59.940;30.280;2022-09-03T08:29:40;101912.75;;;23.13;42.05
41513;BME280;27244;59.940;30.280;2022-09-03T08:32:07;101912.75;;;23.13;42.20
41513;BME280;27244;59.940;30.280;2022-09-03T08:34:34;101909.56;;;23.11;42.30
41513;BME280;27244;59.940;30.280;2022-09-03T08:37:03;101926.41;;;23.15;42.39
41513;BME280;27244;59.940;30.280;2022-09-03T08:39:30;101924.41;;;23.12;42.38
41513;BME280;27244;59.940;30.280;2022-09-03T08:42:18;101921.50;;;23.26;42.26
41513;BME280;27244;59.940;30.280;2022-09-03T08:44:49;101923.16;;;23.16;42.39
41513;BME280;27244;59.940;30.280;2022-09-03T08:47:21;101912.34;;;23.15;41.73
41513;BME280;27244;59.940;30.280;2022-09-03T08:49:53;101924.38;;;23.15;42.21
41513;BME280;27244;59.940;30.280;2022-09-03T08:52:28;101923.56;;;23.18;42.08
41513;BME280;27244;59.940;30.280;2022-09-03T08:55:06;101930.41;;;23.17;42.19
41513;BME280;27244;59.940;30.280;2022-09-03T08:57:41;101922.38;;;23.16;42.27
41513;BME280;27244;59.940;30.280;2022-09-03T09:00:10;101924.00;;;23.13;42.28
41513;BME280;27244;59.940;30.280;2022-09-03T09:02:46;101919.56;;;23.16;42.10
41513;BME280;27244;59.940;30.280;2022-09-03T09:05:23;101914.69;;;23.20;42.18
41513;BME280;27244;59.940;30.280;2022-09-03T09:08:04;101909.47;;;23.22;41.90
41513;BME280;27244;59.940;30.280;2022-09-03T09:10:43;101917.13;;;23.18;42.33
41513;BME280;27244;59.940;30.280;2022-09-03T09:13:19;101920.34;;;23.20;42.34
41513;BME280;27244;59.940;30.280;2022-09-03T09:15:58;101914.31;;;23.18;41.89
41513;BME280;27244;59.940;30.280;2022-09-03T09:18:40;101926.38;;;23.22;42.19
41513;BME280;27244;59.940;30.280;2022-09-03T09:21:14;101925.97;;;23.16;42.36
41513;BME280;27244;59.940;30.280;2022-09-03T09:23:46;101932.81;;;23.19;42.48
41513;BME280;27244;59.940;30.280;2022-09-03T09:26:16;101932.41;;;23.17;42.50
41513;BME280;27244;59.940;30.280;2022-09-03T09:28:45;101928.44;;;23.14;42.56
41513;BME280;27244;59.940;30.280;2022-09-03T09:31:14;101928.81;;;23.13;41.95
41513;BME280;27244;59.940;30.280;2022-09-03T09:33:43;101927.66;;;23.10;42.25
41513;BME280;27244;59.940;30.280;2022-09-03T09:36:13;101935.22;;;23.17;42.33
41513;BME280;27244;59.940;30.280;2022-09-03T09:38:43;101935.66;;;23.12;42.03
41513;BME280;27244;59.940;30.280;2022-09-03T09:41:14;101938.47;;;23.12;42.15
41513;BME280;27244;59.940;30.280;2022-09-03T09:43:41;101937.69;;;23.11;42.22
41513;BME280;27244;59.940;30.280;2022-09-03T09:46:12;101927.22;;;23.12;42.36
41513;BME280;27244;59.940;30.280;2022-09-03T09:48:48;101927.59;;;23.17;42.18
41513;BME280;27244;59.940;30.280;2022-09-03T09:51:21;101922.38;;;23.16;42.25
41513;BME280;27244;59.940;30.280;2022-09-03T09:54:01;101936.78;;;23.25;42.24
41513;BME280;27244;59.940;30.280;2022-09-03T09:56:28;101930.44;;;23.14;42.48
41513;BME280;27244;59.940;30.280;2022-09-03T09:59:03;101931.19;;;23.21;42.22
41513;BME280;27244;59.940;30.280;2022-09-03T10:01:31;101941.69;;;23.14;41.97
41513;BME280;27244;59.940;30.280;2022-09-03T10:04:00;101946.13;;;23.15;41.94
41513;BME280;27244;59.940;30.280;2022-09-03T10:06:34;101937.25;;;23.13;42.01
41513;BME280;27244;59.940;30.280;2022-09-03T10:09:24;101938.06;;;23.17;42.09
41513;BME280;27244;59.940;30.280;2022-09-03T10:12:04;101940.00;;;23.23;41.94
41513;BME280;27244;59.940;30.280;2022-09-03T10:14:41;101932.03;;;23.15;41.84
41513;BME280;27244;59.940;30.280;2022-09-03T10:17:18;101946.50;;;23.17;42.06
41513;BME280;27244;59.940;30.280;2022-09-03T10:19:55;101935.22;;;23.17;42.11
41513;BME280;27244;59.940;30.280;2022-09-03T10:22:40;101941.28;;;23.12;42.38
41513;BME280;27244;59.940;30.280;2022-09-03T10:25:13;101937.69;;;23.15;42.17
41513;BME280;27244;59.940;30.280;2022-09-03T10:27:41;101942.09;;;23.12;42.19
41513;BME280;27244;59.940;30.280;2022-09-03T10:30:10;101935.66;;;23.12;42.16
41513;BME280;27244;59.940;30.280;2022-09-03T10:32:44;101934.03;;;23.18;42.25
41513;BME280;27244;59.940;30.280;2022-09-03T10:35:20;101943.28;;;23.18;42.21
41513;BME280;27244;59.940;30.280;2022-09-03T10:37:55;101923.97;;;23.17;42.16
41513;BME280;27244;59.940;30.280;2022-09-03T10:40:35;101931.19;;;23.21;42.09
41513;BME280;27244;59.940;30.280;2022-09-03T10:43:28;101929.53;;;23.27;41.97
41513;BME280;27244;59.940;30.280;2022-09-03T10:46:09;101932.81;;;23.19;42.10
41513;BME280;27244;59.940;30.280;2022-09-03T10:49:09;101925.13;;;23.23;42.27
41513;BME280;27244;59.940;30.280;2022-09-03T10:51:41;101940.06;;;23.16;42.19
41513;BME280;27244;59.940;30.280;2022-09-03T10:54:25;101942.44;;;23.25;42.05
41513;BME280;27244;59.940;30.280;2022-09-03T10:57:03;101935.22;;;23.20;42.10
41513;BME280;27244;59.940;30.280;2022-09-03T10:59:49;101936.00;;;23.24;41.99
41513;BME280;27244;59.940;30.280;2022-09-03T11:02:35;101931.19;;;23.21;41.97
41513;BME280;27244;59.940;30.280;2022-09-03T11:05:08;101938.88;;;23.14;42.07
41513;BME280;27244;59.940;30.280;2022-09-03T11:07:44;101955.34;;;23.19;42.11
41513;BME280;27244;59.940;30.280;2022-09-03T11:10:17;101947.69;;;23.19;42.29
41513;BME280;27244;59.940;30.280;2022-09-03T11:12:51;101942.84;;;23.20;42.20
41513;BME280;27244;59.940;30.280;2022-09-03T11:15:24;101940.06;;;23.16;42.06
41513;BME280;27244;59.940;30.280;2022-09-03T11:17:55;101940.50;;;23.15;42.13
41513;BME280;27244;59.940;30.280;2022-09-03T11:20:25;101928.03;;;23.12;42.07
41513;BME280;27244;59.940;30.280;2022-09-03T11:22:56;101929.59;;;23.17;42.16
41513;BME280;27244;59.940;30.280;2022-09-03T11:25:30;101939.22;;;23.19;42.11
41513;BME280;27244;59.940;30.280;2022-09-03T11:28:11;101936.78;;;23.25;41.91
41513;BME280;27244;59.940;30.280;2022-09-03T11:30:51;101925.16;;;23.19;41.96
41513;BME280;27244;59.940;30.280;2022-09-03T11:33:23;101939.25;;;23.16;42.06
41513;BME280;27244;59.940;30.280;2022-09-03T11:35:56;101928.00;;;23.16;41.92
41513;BME280;27244;59.940;30.280;2022-09-03T11:38:26;101930.41;;;23.17;42.17
41513;BME280;27244;59.940;30.280;2022-09-03T11:41:10;101923.13;;;23.23;41.96
41513;BME280;27244;59.940;30.280;2022-09-03T11:43:40;101917.94;;;23.18;42.00
41513;BME280;27244;59.940;30.280;2022-09-03T11:46:12;101927.19;;;23.19;42.02
41513;BME280;27244;59.940;30.280;2022-09-03T11:48:41;101919.16;;;23.17;41.97
41513;BME280;27244;59.940;30.280;2022-09-03T11:51:28;101921.50;;;23.26;41.88
41513;BME280;27244;59.940;30.280;2022-09-03T11:53:57;101921.97;;;23.17;41.86
41513;BME280;27244;59.940;30.280;2022-09-03T11:56:25;101926.41;;;23.15;41.85
41513;BME280;27244;59.940;30.280;2022-09-03T11:59:16;101910.22;;;23.29;41.77
41513;BME280;27244;59.940;30.280;2022-09-03T12:01:46;101916.59;;;23.44;41.56
41513;BME280;27244;59.940;30.280;2022-09-03T12:04:19;101911.06;;;23.19;41.77
41513;BME280;27244;59.940;30.280;2022-09-03T12:07:05;101909.44;;;23.25;41.76
41513;BME280;27244;59.940;30.280;2022-09-03T12:09:55;101907.00;;;23.27;41.71
41513;BME280;27244;59.940;30.280;2022-09-03T12:12:41;101913.84;;;23.26;41.89
41513;BME280;27244;59.940;30.280;2022-09-03T12:15:13;101908.53;;;23.42;41.58
41513;BME280;27244;59.940;30.280;2022-09-03T12:17:51;101912.25;;;23.25;41.98
41513;BME280;27244;59.940;30.280;2022-09-03T12:20:59;101896.91;;;23.30;42.03
41513;BME280;27244;59.940;30.280;2022-09-03T12:23:29;101912.75;;;23.13;41.80
41513;BME280;27244;59.940;30.280;2022-09-03T12:25:57;101903.94;;;23.08;42.00
41513;BME280;27244;59.940;30.280;2022-09-03T12:28:28;101913.91;;;23.16;42.03
41513;BME280;27244;59.940;30.280;2022-09-03T12:31:05;101905.84;;;23.21;42.02
41513;BME280;27244;59.940;30.280;2022-09-03T12:33:46;101903.91;;;23.15;42.21
41513;BME280;27244;59.940;30.280;2022-09-03T12:36:14;101911.53;;;23.14;42.18
41513;BME280;27244;59.940;30.280;2022-09-03T12:38:41;101912.75;;;23.13;41.29
41513;BME280;27244;59.940;30.280;2022-09-03T12:41:22;101909.47;;;23.22;42.00
41513;BME280;27244;59.940;30.280;2022-09-03T12:43:51;101914.75;;;23.13;42.42
41513;BME280;27244;59.940;30.280;2022-09-03T12:46:23;101912.75;;;23.13;41.69
41513;BME280;27244;59.940;30.280;2022-09-03T12:48:55;101920.78;;;23.15;41.94
41513;BME280;27244;59.940;30.280;2022-09-03T12:51:24;101922.38;;;23.12;41.92
41513;BME280;27244;59.940;30.280;2022-09-03T12:53:51;101918.38;;;23.13;42.04
41513;BME280;27244;59.940;30.280;2022-09-03T12:56:20;101917.56;;;23.13;42.15
41513;BME280;27244;59.940;30.280;2022-09-03T12:58:51;101916.34;;;23.17;41.96
41513;BME280;27244;59.940;30.280;2022-09-03T13:01:23;101920.78;;;23.15;41.84
41513;BME280;27244;59.940;30.280;2022-09-03T13:03:54;101910.31;;;23.12;41.88